Time;durP1;ratioP1;P1;durP2;ratioP2;P2;SDS_P1;SDS_P2;PMS_P1;PMS_P2;Temp;Humidity;BMP_temperature;BMP_pressure;BME280_temperature;BME280_humidity;BME280_pressure;Samples;Min_cycle;Max_cycle;Signal;HPM_P1;HPM_P2
2022/07/21 00:00:36;;;;;;;16.20;7.70;;;;;;;;;;5089359;28;20476;-71
2022/07/21 00:03:04;;;;;;;18.97;8.80;;;;;;;;;;5090069;28;20465;-70
2022/07/21 00:05:31;;;;;;;17.00;7.70;;;;;;;;;;5096811;28;20472;-68
2022/07/21 00:07:58;;;;;;;17.83;8.23;;;;;;;;;;5095463;28;20461;-71
2022/07/21 00:10:28;;;;;;;19.50;8.73;;;;;;;;;;5089856;28;20452;-71
2022/07/21 00:12:55;;;;;;;22.80;9.63;;;;;;;;;;5089549;28;20544;-72
2022/07/21 00:15:24;;;;;;;19.47;9.80;;;;;;;;;;5079706;28;20536;-71
2022/07/21 00:17:51;;;;;;;19.60;9.23;;;;;;;;;;5089172;28;20847;-71
2022/07/21 00:20:18;;;;;;;16.90;7.23;;;;;;;;;;5090262;28;20837;-72
2022/07/21 00:22:46;;;;;;;20.13;8.93;;;;;;;;;;5089542;28;20456;-71
2022/07/21 00:25:14;;;;;;;20.87;8.90;;;;;;;;;;5090371;28;20445;-70
2022/07/21 00:27:42;;;;;;;19.03;9.90;;;;;;;;;;5086303;28;20532;-71
2022/07/21 00:30:10;;;;;;;18.63;8.23;;;;;;;;;;5090413;28;20457;-71
2022/07/21 00:32:38;;;;;;;18.17;9.13;;;;;;;;;;5089443;28;20453;-72
2022/07/21 00:35:05;;;;;;;17.40;8.13;;;;;;;;;;5089883;28;20583;-71
2022/07/21 00:37:33;;;;;;;20.10;9.07;;;;;;;;;;5089505;28;20786;-71
2022/07/21 00:40:00;;;;;;;18.80;8.70;;;;;;;;;;5090365;28;20484;-71
2022/07/21 00:42:28;;;;;;;18.83;8.17;;;;;;;;;;5089466;28;20448;-71
2022/07/21 00:44:57;;;;;;;17.33;8.33;;;;;;;;;;5089672;28;20802;-71
2022/07/21 00:47:24;;;;;;;18.30;6.67;;;;;;;;;;5089938;28;20456;-71
2022/07/21 00:49:52;;;;;;;19.90;8.13;;;;;;;;;;5090812;28;20448;-71
2022/07/21 00:52:20;;;;;;;17.50;7.70;;;;;;;;;;5094011;28;20863;-71
2022/07/21 00:54:47;;;;;;;20.27;8.80;;;;;;;;;;5093875;28;20446;-71
2022/07/21 00:57:15;;;;;;;17.97;8.60;;;;;;;;;;5094123;28;20460;-71
2022/07/21 00:59:43;;;;;;;17.53;7.93;;;;;;;;;;5093394;28;20476;-71
2022/07/21 01:02:11;;;;;;;17.10;7.40;;;;;;;;;;5093694;28;20480;-71
2022/07/21 01:04:39;;;;;;;18.20;7.73;;;;;;;;;;5093883;28;20457;-71
2022/07/21 01:07:07;;;;;;;17.17;7.47;;;;;;;;;;5101983;28;20440;-71
2022/07/21 01:09:34;;;;;;;22.97;9.33;;;;;;;;;;5093380;28;20453;-72
2022/07/21 01:12:02;;;;;;;17.93;7.30;;;;;;;;;;5093518;28;20449;-71
2022/07/21 01:14:29;;;;;;;16.80;7.27;;;;;;;;;;5094052;28;20871;-71
2022/07/21 01:16:56;;;;;;;17.40;7.97;;;;;;;;;;5093339;28;20567;-72
2022/07/21 01:19:25;;;;;;;17.20;7.83;;;;;;;;;;5093431;28;21005;-72
2022/07/21 01:21:53;;;;;;;15.90;6.60;;;;;;;;;;5092744;28;20535;-72
2022/07/21 01:24:21;;;;;;;18.27;7.30;;;;;;;;;;5093871;28;20924;-72
2022/07/21 01:26:49;;;;;;;15.43;6.67;;;;;;;;;;5093395;28;20453;-71
2022/07/21 01:29:16;;;;;;;17.80;7.93;;;;;;;;;;5093151;28;20449;-72
2022/07/21 01:31:44;;;;;;;17.50;7.20;;;;;;;;;;5092368;28;20549;-72
2022/07/21 01:34:12;;;;;;;17.17;7.07;;;;;;;;;;5093420;28;20499;-71
2022/07/21 01:36:39;;;;;;;16.40;6.43;;;;;;;;;;5091142;28;20468;-72
2022/07/21 01:41:53;;;;;;;16.37;6.77;;;;;;;;;;5092284;28;20804;-71
2022/07/21 01:44:20;;;;;;;15.53;6.20;;;;;;;;;;5085489;28;20441;-72
2022/07/21 01:46:49;;;;;;;16.57;7.07;;;;;;;;;;5092614;28;20535;-72
2022/07/21 01:49:16;;;;;;;16.03;7.30;;;;;;;;;;5093598;28;20539;-72
2022/07/21 01:51:44;;;;;;;16.00;6.50;;;;;;;;;;5092727;28;20810;-72
2022/07/21 01:54:13;;;;;;;14.93;6.40;;;;;;;;;;5093207;28;20448;-72
2022/07/21 01:56:40;;;;;;;16.50;6.00;;;;;;;;;;5092795;28;20451;-71
2022/07/21 01:59:08;;;;;;;13.90;5.53;;;;;;;;;;5093657;28;20814;-73
2022/07/21 02:01:35;;;;;;;15.20;6.07;;;;;;;;;;5091448;28;20449;-73
2022/07/21 02:04:04;;;;;;;14.97;6.07;;;;;;;;;;5093047;28;20937;-75
2022/07/21 02:06:31;;;;;;;15.77;6.07;;;;;;;;;;5092960;28;20452;-68
2022/07/21 02:08:58;;;;;;;15.13;6.57;;;;;;;;;;5093811;28;20543;-74
2022/07/21 02:11:27;;;;;;;15.03;6.37;;;;;;;;;;5092698;28;20461;-69
2022/07/21 02:13:55;;;;;;;15.90;7.10;;;;;;;;;;5082494;28;20841;-73
2022/07/21 02:16:22;;;;;;;14.57;5.77;;;;;;;;;;5093019;28;20498;-73
2022/07/21 02:18:49;;;;;;;14.13;5.50;;;;;;;;;;5092311;28;20460;-73
2022/07/21 02:21:16;;;;;;;15.07;5.70;;;;;;;;;;5092358;28;20519;-73
2022/07/21 02:23:43;;;;;;;16.97;6.90;;;;;;;;;;5092190;28;20452;-73
2022/07/21 02:26:10;;;;;;;15.30;5.53;;;;;;;;;;5092797;28;20443;-72
2022/07/21 02:28:39;;;;;;;16.13;7.13;;;;;;;;;;5092649;28;20448;-73
2022/07/21 02:31:07;;;;;;;17.67;6.40;;;;;;;;;;5092275;28;20475;-73
2022/07/21 02:33:34;;;;;;;15.77;6.50;;;;;;;;;;5091930;28;20994;-73
2022/07/21 02:36:01;;;;;;;17.60;6.47;;;;;;;;;;5093194;28;20530;-72
2022/07/21 02:38:28;;;;;;;17.50;7.47;;;;;;;;;;5092539;28;20471;-73
2022/07/21 02:40:56;;;;;;;17.67;6.87;;;;;;;;;;5091940;28;20502;-73
2022/07/21 02:43:23;;;;;;;18.63;6.77;;;;;;;;;;5092333;28;20460;-74
2022/07/21 02:45:51;;;;;;;16.17;5.83;;;;;;;;;;5091930;28;20816;-73
2022/07/21 02:48:18;;;;;;;15.37;5.40;;;;;;;;;;5092245;28;20456;-73
2022/07/21 02:50:45;;;;;;;16.23;6.00;;;;;;;;;;5090929;28;20911;-73
2022/07/21 02:53:13;;;;;;;15.47;5.70;;;;;;;;;;5092118;28;20960;-73
2022/07/21 02:55:41;;;;;;;16.60;6.17;;;;;;;;;;5092171;28;20804;-73
2022/07/21 02:58:09;;;;;;;17.23;6.10;;;;;;;;;;5092174;28;20819;-73
2022/07/21 03:00:38;;;;;;;18.30;6.53;;;;;;;;;;5091014;28;21078;-73
2022/07/21 03:03:07;;;;;;;17.03;5.90;;;;;;;;;;5092178;28;20919;-73
2022/07/21 03:05:34;;;;;;;16.50;5.70;;;;;;;;;;5098191;28;20448;-74
2022/07/21 03:08:01;;;;;;;19.47;6.43;;;;;;;;;;5097181;28;20455;-72
2022/07/21 03:10:28;;;;;;;17.27;6.30;;;;;;;;;;5091749;28;20445;-74
2022/07/21 03:12:56;;;;;;;16.43;6.20;;;;;;;;;;5090877;28;20455;-75
2022/07/21 03:15:23;;;;;;;16.63;5.90;;;;;;;;;;5091402;28;20452;-74
2022/07/21 03:17:50;;;;;;;18.40;5.53;;;;;;;;;;5091533;28;20443;-74
2022/07/21 03:20:18;;;;;;;16.10;6.03;;;;;;;;;;5091398;28;21010;-74
2022/07/21 03:22:46;;;;;;;17.10;5.93;;;;;;;;;;5091533;28;20444;-74
2022/07/21 03:25:13;;;;;;;17.67;6.23;;;;;;;;;;5092234;28;20540;-74
2022/07/21 03:27:40;;;;;;;16.20;5.60;;;;;;;;;;5091013;28;20445;-72
2022/07/21 03:30:08;;;;;;;16.50;6.13;;;;;;;;;;5090898;28;20445;-74
2022/07/21 03:32:35;;;;;;;15.90;5.77;;;;;;;;;;5090973;28;20818;-74
2022/07/21 03:35:03;;;;;;;18.53;7.00;;;;;;;;;;5093564;28;20468;-75
2022/07/21 03:37:32;;;;;;;16.80;5.13;;;;;;;;;;5092041;27;20445;-75
2022/07/21 03:39:59;;;;;;;16.37;5.17;;;;;;;;;;5091005;28;20475;-75
2022/07/21 03:42:26;;;;;;;15.60;4.90;;;;;;;;;;5091418;28;20453;-76
2022/07/21 03:44:53;;;;;;;16.03;5.30;;;;;;;;;;5090250;28;20445;-75
2022/07/21 03:47:20;;;;;;;17.80;6.93;;;;;;;;;;5087672;28;20950;-76
2022/07/21 03:49:48;;;;;;;17.23;5.73;;;;;;;;;;5091230;28;20441;-76
2022/07/21 03:52:15;;;;;;;16.30;5.40;;;;;;;;;;5091173;28;20634;-75
2022/07/21 03:54:43;;;;;;;23.33;6.00;;;;;;;;;;5090986;28;20818;-75
2022/07/21 03:57:10;;;;;;;15.67;5.00;;;;;;;;;;5091238;28;20525;-75
2022/07/21 03:59:38;;;;;;;16.17;5.03;;;;;;;;;;5090971;28;20471;-77
2022/07/21 04:02:05;;;;;;;16.53;5.30;;;;;;;;;;5094592;28;21050;-77
2022/07/21 04:04:33;;;;;;;16.57;4.63;;;;;;;;;;5093717;28;20519;-75
2022/07/21 04:07:00;;;;;;;16.23;5.30;;;;;;;;;;5103637;28;20444;-76
2022/07/21 04:09:27;;;;;;;15.87;5.20;;;;;;;;;;5091280;28;20452;-77
2022/07/21 04:11:56;;;;;;;15.20;5.60;;;;;;;;;;5090061;28;20547;-76
2022/07/21 04:14:23;;;;;;;14.83;4.53;;;;;;;;;;5091354;28;20453;-77
2022/07/21 04:16:50;;;;;;;17.63;5.53;;;;;;;;;;5090189;28;20451;-73
2022/07/21 04:19:18;;;;;;;14.67;4.80;;;;;;;;;;5090872;28;20851;-73
2022/07/21 04:21:45;;;;;;;14.73;5.00;;;;;;;;;;5090252;28;20480;-74
2022/07/21 04:24:12;;;;;;;13.57;4.57;;;;;;;;;;5090785;28;20520;-73
2022/07/21 04:26:39;;;;;;;13.87;4.83;;;;;;;;;;5090620;28;20448;-74
2022/07/21 04:29:08;;;;;;;14.30;5.57;;;;;;;;;;5090571;28;20453;-73
2022/07/21 04:31:35;;;;;;;13.37;5.00;;;;;;;;;;5090064;28;20452;-74
2022/07/21 04:34:02;;;;;;;16.00;5.63;;;;;;;;;;5090486;28;20500;-75
2022/07/21 04:36:30;;;;;;;15.57;6.17;;;;;;;;;;5092604;28;20449;-74
2022/07/21 04:38:58;;;;;;;14.13;5.53;;;;;;;;;;5091501;28;20791;-75
2022/07/21 04:41:25;;;;;;;15.07;6.13;;;;;;;;;;5089945;28;20472;-73
2022/07/21 04:43:52;;;;;;;13.37;5.10;;;;;;;;;;5090358;28;20474;-74
2022/07/21 04:46:20;;;;;;;14.70;5.83;;;;;;;;;;5090762;28;20449;-75
2022/07/21 04:48:48;;;;;;;15.40;5.60;;;;;;;;;;5092532;28;20461;-76
2022/07/21 04:51:15;;;;;;;15.27;5.07;;;;;;;;;;5095986;28;20455;-75
2022/07/21 04:53:42;;;;;;;14.27;5.40;;;;;;;;;;5094353;28;20495;-75
2022/07/21 04:56:09;;;;;;;14.60;5.37;;;;;;;;;;5091505;28;20447;-69
2022/07/21 04:58:36;;;;;;;13.63;5.10;;;;;;;;;;5091275;28;20440;-75
2022/07/21 05:01:03;;;;;;;14.90;5.97;;;;;;;;;;5091522;28;20812;-76
2022/07/21 05:03:32;;;;;;;15.80;5.67;;;;;;;;;;5091477;28;20471;-77
2022/07/21 05:05:59;;;;;;;14.83;5.60;;;;;;;;;;5101259;28;20443;-77
2022/07/21 05:08:27;;;;;;;14.20;5.43;;;;;;;;;;5091983;28;20505;-76
2022/07/21 05:10:55;;;;;;;14.97;5.73;;;;;;;;;;5090138;28;20498;-75
2022/07/21 05:13:22;;;;;;;15.40;6.00;;;;;;;;;;5090777;28;20445;-77
2022/07/21 05:15:49;;;;;;;13.97;4.77;;;;;;;;;;5090491;28;20453;-77
2022/07/21 05:18:16;;;;;;;13.90;5.13;;;;;;;;;;5090414;28;20467;-76
2022/07/21 05:20:44;;;;;;;14.20;5.37;;;;;;;;;;5090464;28;20489;-76
2022/07/21 05:23:11;;;;;;;14.07;5.40;;;;;;;;;;5091303;28;20458;-76
2022/07/21 05:25:39;;;;;;;14.60;5.87;;;;;;;;;;5090744;28;20523;-76
2022/07/21 05:28:06;;;;;;;13.53;4.63;;;;;;;;;;5090481;28;20867;-76
2022/07/21 05:30:35;;;;;;;13.20;4.83;;;;;;;;;;5090585;28;20531;-76
2022/07/21 05:33:02;;;;;;;13.57;5.00;;;;;;;;;;5090483;28;21079;-77
2022/07/21 05:35:30;;;;;;;13.50;4.93;;;;;;;;;;5093914;28;20453;-76
2022/07/21 05:37:58;;;;;;;13.30;4.37;;;;;;;;;;5093681;28;20784;-76
2022/07/21 05:40:26;;;;;;;14.20;4.97;;;;;;;;;;5094720;28;20467;-76
2022/07/21 05:42:53;;;;;;;15.00;5.20;;;;;;;;;;5094407;28;20949;-77
2022/07/21 05:45:20;;;;;;;15.70;5.60;;;;;;;;;;5095448;28;20448;-77
2022/07/21 05:47:47;;;;;;;15.90;6.33;;;;;;;;;;5093873;28;20877;-78
2022/07/21 05:50:14;;;;;;;13.60;4.80;;;;;;;;;;5096245;28;20448;-76
2022/07/21 05:52:42;;;;;;;13.43;5.13;;;;;;;;;;5112704;28;20512;-76
2022/07/21 05:55:11;;;;;;;14.57;5.50;;;;;;;;;;5109727;28;20531;-75
2022/07/21 05:57:38;;;;;;;13.97;5.30;;;;;;;;;;5104738;28;20491;-77
2022/07/21 06:00:06;;;;;;;13.17;4.90;;;;;;;;;;5094814;28;20445;-77
2022/07/21 06:02:33;;;;;;;14.10;5.80;;;;;;;;;;5093678;28;20995;-77
2022/07/21 06:05:01;;;;;;;13.73;5.50;;;;;;;;;;5096285;28;20833;-77
2022/07/21 06:07:28;;;;;;;13.77;5.23;;;;;;;;;;5102816;28;20445;-78
2022/07/21 06:09:55;;;;;;;12.90;5.40;;;;;;;;;;5093650;28;20480;-77
2022/07/21 06:12:24;;;;;;;14.00;5.37;;;;;;;;;;5093712;28;20452;-76
2022/07/21 06:14:51;;;;;;;18.33;5.60;;;;;;;;;;5093805;28;20644;-78
2022/07/21 06:17:18;;;;;;;13.67;5.40;;;;;;;;;;5093686;28;20455;-77
2022/07/21 06:19:45;;;;;;;13.40;5.00;;;;;;;;;;5093733;28;20458;-76
2022/07/21 06:22:12;;;;;;;13.70;5.13;;;;;;;;;;5093633;28;20575;-77
2022/07/21 06:24:40;;;;;;;13.00;4.90;;;;;;;;;;5092931;28;20449;-77
2022/07/21 06:27:07;;;;;;;16.43;5.60;;;;;;;;;;5093168;28;20531;-76
2022/07/21 06:29:35;;;;;;;14.63;5.47;;;;;;;;;;5092694;28;20444;-76
2022/07/21 06:32:03;;;;;;;13.10;5.50;;;;;;;;;;5093302;28;20539;-74
2022/07/21 06:34:30;;;;;;;13.67;5.37;;;;;;;;;;5079720;28;20490;-77
2022/07/21 06:36:57;;;;;;;13.47;4.40;;;;;;;;;;5095875;28;20535;-79
2022/07/21 06:39:24;;;;;;;13.03;4.87;;;;;;;;;;5093254;28;20448;-78
2022/07/21 06:41:51;;;;;;;14.90;4.73;;;;;;;;;;5092868;28;20855;-78
2022/07/21 06:44:19;;;;;;;16.20;4.87;;;;;;;;;;5092973;28;20451;-76
2022/07/21 06:46:47;;;;;;;15.40;5.27;;;;;;;;;;5092145;28;20449;-77
2022/07/21 06:49:14;;;;;;;14.90;4.93;;;;;;;;;;5092795;28;20449;-78
2022/07/21 06:51:41;;;;;;;17.17;4.70;;;;;;;;;;5092671;28;20455;-77
2022/07/21 06:54:09;;;;;;;18.70;5.43;;;;;;;;;;5093194;28;20768;-77
2022/07/21 06:56:36;;;;;;;18.20;4.43;;;;;;;;;;5091724;28;20868;-77
2022/07/21 06:59:03;;;;;;;19.57;4.77;;;;;;;;;;5092652;28;20451;-78
2022/07/21 07:01:30;;;;;;;18.90;4.83;;;;;;;;;;5092853;28;20480;-76
2022/07/21 07:03:59;;;;;;;19.03;5.00;;;;;;;;;;5093397;28;20529;-78
2022/07/21 07:06:26;;;;;;;19.40;4.60;;;;;;;;;;5104766;28;20451;-77
2022/07/21 07:08:53;;;;;;;20.37;4.40;;;;;;;;;;5092128;28;20445;-79
2022/07/21 07:11:20;;;;;;;20.30;4.50;;;;;;;;;;5093111;28;20448;-78
2022/07/21 07:13:47;;;;;;;21.43;4.97;;;;;;;;;;5091997;28;20942;-77
2022/07/21 07:16:14;;;;;;;20.47;4.37;;;;;;;;;;5092109;28;20453;-78
2022/07/21 07:18:41;;;;;;;22.90;5.67;;;;;;;;;;5092310;28;20456;-77
2022/07/21 07:21:10;;;;;;;21.87;4.63;;;;;;;;;;5092684;28;20480;-78
2022/07/21 07:23:37;;;;;;;21.83;5.13;;;;;;;;;;5092276;28;20457;-77
2022/07/21 07:26:04;;;;;;;22.20;4.70;;;;;;;;;;5092070;28;20445;-78
2022/07/21 07:28:31;;;;;;;21.77;4.50;;;;;;;;;;5091343;28;20444;-72
2022/07/21 07:30:58;;;;;;;23.00;4.50;;;;;;;;;;5092504;28;20445;-78
2022/07/21 07:33:27;;;;;;;24.10;5.27;;;;;;;;;;5091712;28;21025;-77
2022/07/21 07:35:56;;;;;;;23.10;5.33;;;;;;;;;;5094220;28;20437;-78
2022/07/21 07:38:24;;;;;;;24.70;4.53;;;;;;;;;;5092392;28;20498;-77
2022/07/21 07:40:51;;;;;;;25.70;4.93;;;;;;;;;;5091693;28;20452;-77
2022/07/21 07:43:19;;;;;;;25.50;4.77;;;;;;;;;;5092180;28;20457;-78
2022/07/21 07:45:46;;;;;;;27.83;4.97;;;;;;;;;;5091235;28;20513;-74
2022/07/21 07:48:13;;;;;;;28.30;4.60;;;;;;;;;;5092256;28;20457;-77
2022/07/21 07:50:40;;;;;;;28.60;4.40;;;;;;;;;;5091556;28;20440;-76
2022/07/21 07:53:07;;;;;;;28.80;4.73;;;;;;;;;;5092133;28;20449;-78
2022/07/21 07:55:36;;;;;;;26.57;4.30;;;;;;;;;;5091572;28;20874;-78
2022/07/21 07:58:03;;;;;;;29.00;4.97;;;;;;;;;;5091263;28;20441;-78
2022/07/21 08:00:30;;;;;;;29.53;4.30;;;;;;;;;;5091264;28;20449;-74
2022/07/21 08:02:58;;;;;;;31.90;4.73;;;;;;;;;;5091992;28;20583;-79
2022/07/21 08:05:25;;;;;;;31.60;4.60;;;;;;;;;;5096738;28;20448;-78
2022/07/21 08:07:52;;;;;;;32.67;4.43;;;;;;;;;;5097928;28;20460;-78
2022/07/21 08:10:19;;;;;;;32.80;4.47;;;;;;;;;;5078173;28;20449;-78
2022/07/21 08:12:48;;;;;;;33.20;4.60;;;;;;;;;;5091170;28;20533;-77
2022/07/21 08:15:15;;;;;;;31.87;4.10;;;;;;;;;;5078628;28;20449;-76
2022/07/21 08:17:43;;;;;;;31.97;4.40;;;;;;;;;;5090539;28;20445;-77
2022/07/21 08:20:11;;;;;;;33.10;4.30;;;;;;;;;;5091506;28;20958;-78
2022/07/21 08:22:38;;;;;;;32.67;4.17;;;;;;;;;;5090949;28;20616;-78
2022/07/21 08:25:06;;;;;;;32.83;4.00;;;;;;;;;;5091269;28;20456;-77
2022/07/21 08:27:33;;;;;;;33.30;4.53;;;;;;;;;;5090230;28;20962;-77
2022/07/21 08:30:02;;;;;;;34.30;4.97;;;;;;;;;;5091384;28;20452;-79
2022/07/21 08:32:29;;;;;;;33.67;4.60;;;;;;;;;;5091361;28;20463;-78
2022/07/21 08:34:56;;;;;;;34.57;4.00;;;;;;;;;;5092886;28;20508;-78
2022/07/21 08:37:23;;;;;;;34.50;5.03;;;;;;;;;;5092710;28;20436;-78
2022/07/21 08:39:50;;;;;;;34.37;4.50;;;;;;;;;;5091235;28;20814;-78
2022/07/21 08:42:18;;;;;;;31.90;4.00;;;;;;;;;;5091590;28;20484;-78
2022/07/21 08:44:45;;;;;;;32.57;4.80;;;;;;;;;;5091425;28;20912;-77
2022/07/21 08:47:14;;;;;;;30.20;3.93;;;;;;;;;;5091355;28;20535;-76
2022/07/21 08:49:41;;;;;;;29.63;4.07;;;;;;;;;;5092820;28;20995;-73
2022/07/21 08:52:08;;;;;;;30.27;4.30;;;;;;;;;;5107442;28;20508;-77
2022/07/21 08:54:36;;;;;;;29.27;4.00;;;;;;;;;;5104740;28;20524;-77
2022/07/21 08:57:03;;;;;;;28.77;4.00;;;;;;;;;;5096381;28;20471;-77
2022/07/21 08:59:30;;;;;;;30.10;4.63;;;;;;;;;;5092220;28;20447;-78
2022/07/21 09:01:57;;;;;;;28.33;3.87;;;;;;;;;;5091578;28;20587;-78
2022/07/21 09:04:28;;;;;;;31.00;4.30;;;;;;;;;;5091605;28;20449;-77
2022/07/21 09:06:56;;;;;;;29.13;4.10;;;;;;;;;;5103001;28;20448;-78
2022/07/21 09:09:24;;;;;;;26.50;3.70;;;;;;;;;;5091533;28;20472;-77
2022/07/21 09:11:51;;;;;;;27.23;4.10;;;;;;;;;;5093196;28;20786;-77
2022/07/21 09:14:21;;;;;;;24.23;3.90;;;;;;;;;;5093806;28;20456;-71
2022/07/21 09:16:49;;;;;;;25.13;3.53;;;;;;;;;;5092292;28;20539;-78
2022/07/21 09:19:20;;;;;;;22.97;3.80;;;;;;;;;;5093600;28;20483;-78
2022/07/21 09:21:49;;;;;;;23.60;3.77;;;;;;;;;;5093137;28;20473;-78
2022/07/21 09:24:22;;;;;;;23.70;3.73;;;;;;;;;;5094317;28;20535;-78
2022/07/21 09:26:59;;;;;;;19.77;3.03;;;;;;;;;;5093358;28;20452;-78
2022/07/21 09:29:27;;;;;;;19.67;3.40;;;;;;;;;;5094097;28;20455;-78
2022/07/21 09:31:54;;;;;;;17.90;3.60;;;;;;;;;;5093805;28;20795;-78
2022/07/21 09:34:21;;;;;;;18.20;4.00;;;;;;;;;;5093698;28;20487;-78
2022/07/21 09:36:59;;;;;;;18.87;4.30;;;;;;;;;;5096386;28;20532;-79
2022/07/21 09:39:42;;;;;;;19.23;4.13;;;;;;;;;;5094317;28;20525;-79
2022/07/21 09:42:13;;;;;;;17.90;3.70;;;;;;;;;;5093689;28;20495;-78
2022/07/21 09:44:42;;;;;;;16.60;3.30;;;;;;;;;;5093495;28;20863;-77
2022/07/21 09:47:13;;;;;;;17.80;3.70;;;;;;;;;;5093241;28;20441;-78
2022/07/21 09:49:41;;;;;;;15.77;3.97;;;;;;;;;;5093764;28;20472;-76
2022/07/21 09:52:20;;;;;;;13.23;3.57;;;;;;;;;;5094298;28;20763;-79
2022/07/21 09:54:47;;;;;;;10.17;3.40;;;;;;;;;;5094314;28;20512;-79
2022/07/21 09:57:15;;;;;;;12.50;3.80;;;;;;;;;;5095053;28;20887;-79
2022/07/21 09:59:44;;;;;;;7.07;3.50;;;;;;;;;;5112812;28;20452;-74
2022/07/21 10:02:16;;;;;;;7.03;3.00;;;;;;;;;;5115731;28;20479;-75
2022/07/21 10:04:43;;;;;;;7.20;3.07;;;;;;;;;;5106383;28;20483;-78
2022/07/21 10:07:11;;;;;;;5.90;3.47;;;;;;;;;;5106935;28;20455;-77
2022/07/21 10:09:40;;;;;;;4.90;3.30;;;;;;;;;;5094304;28;20523;-78
2022/07/21 10:12:08;;;;;;;5.33;2.83;;;;;;;;;;5094118;28;20449;-77
2022/07/21 10:14:36;;;;;;;3.00;2.47;;;;;;;;;;5092510;28;20540;-79
2022/07/21 10:17:03;;;;;;;3.10;2.80;;;;;;;;;;5093151;28;20452;-77
2022/07/21 10:19:33;;;;;;;4.17;3.00;;;;;;;;;;5093165;28;20894;-77
2022/07/21 10:22:03;;;;;;;2.90;2.47;;;;;;;;;;5093023;28;20742;-76
2022/07/21 10:24:31;;;;;;;3.17;2.30;;;;;;;;;;5093004;28;20849;-79
2022/07/21 10:27:04;;;;;;;2.77;2.57;;;;;;;;;;5092757;28;20527;-78
2022/07/21 10:29:49;;;;;;;2.70;2.50;;;;;;;;;;5092518;28;20471;-72
2022/07/21 10:32:16;;;;;;;3.17;2.43;;;;;;;;;;5092740;28;20453;-78
2022/07/21 10:34:44;;;;;;;3.50;2.80;;;;;;;;;;5092648;28;20476;-77
2022/07/21 10:37:11;;;;;;;3.40;2.80;;;;;;;;;;5095871;28;20445;-76
2022/07/21 10:39:39;;;;;;;5.40;2.37;;;;;;;;;;5092526;28;20459;-78
2022/07/21 10:42:16;;;;;;;2.40;2.20;;;;;;;;;;5092744;28;20453;-78
2022/07/21 10:44:50;;;;;;;2.17;1.97;;;;;;;;;;5092090;28;20436;-77
2022/07/21 10:47:19;;;;;;;2.70;2.20;;;;;;;;;;5092106;28;20531;-76
2022/07/21 10:49:51;;;;;;;3.80;2.60;;;;;;;;;;5092599;28;20552;-77
2022/07/21 10:52:38;;;;;;;2.60;2.40;;;;;;;;;;5092491;28;20449;-77
2022/07/21 10:55:23;;;;;;;2.80;2.60;;;;;;;;;;5092155;28;20919;-77
2022/07/21 10:58:10;;;;;;;2.13;1.97;;;;;;;;;;5091754;28;20817;-77
2022/07/21 11:00:37;;;;;;;2.23;2.03;;;;;;;;;;5092102;28;20583;-75
2022/07/21 11:03:05;;;;;;;2.70;2.40;;;;;;;;;;5092094;28;20500;-76
2022/07/21 11:05:34;;;;;;;2.70;2.50;;;;;;;;;;5097616;28;20447;-77
2022/07/21 11:08:15;;;;;;;3.33;3.03;;;;;;;;;;5097305;28;20452;-75
2022/07/21 11:10:43;;;;;;;3.33;2.93;;;;;;;;;;5091829;28;20440;-76
2022/07/21 11:13:12;;;;;;;2.83;2.63;;;;;;;;;;5091658;28;20928;-73
2022/07/21 11:15:59;;;;;;;3.43;2.77;;;;;;;;;;5091300;28;20539;-70
2022/07/21 11:18:27;;;;;;;2.50;2.30;;;;;;;;;;5079304;28;20444;-77
2022/07/21 11:21:04;;;;;;;3.03;2.73;;;;;;;;;;5091752;28;20528;-76
2022/07/21 11:23:39;;;;;;;3.87;2.60;;;;;;;;;;5091458;28;20893;-72
2022/07/21 11:26:06;;;;;;;3.00;2.70;;;;;;;;;;5091379;28;20695;-78
2022/07/21 11:28:35;;;;;;;3.00;2.80;;;;;;;;;;5091194;28;20459;-77
2022/07/21 11:31:12;;;;;;;2.87;2.57;;;;;;;;;;5091472;28;20531;-77
2022/07/21 11:33:40;;;;;;;3.13;2.50;;;;;;;;;;5090762;28;20487;-77
2022/07/21 11:36:07;;;;;;;2.30;2.20;;;;;;;;;;5093642;28;20795;-77
2022/07/21 11:38:35;;;;;;;3.00;2.43;;;;;;;;;;5091488;28;20458;-78
2022/07/21 11:41:15;;;;;;;3.20;2.90;;;;;;;;;;5078297;28;20800;-76
2022/07/21 11:43:44;;;;;;;2.67;2.47;;;;;;;;;;5091047;28;20923;-77
2022/07/21 11:46:11;;;;;;;2.53;2.33;;;;;;;;;;5091073;28;20539;-77
2022/07/21 11:48:38;;;;;;;2.93;2.63;;;;;;;;;;5091253;28;20935;-78
2022/07/21 11:51:06;;;;;;;2.67;2.40;;;;;;;;;;5091641;28;20448;-77
2022/07/21 11:53:33;;;;;;;2.60;2.40;;;;;;;;;;5091735;28;20951;-77
2022/07/21 11:56:01;;;;;;;3.10;2.80;;;;;;;;;;5091951;28;20507;-78
2022/07/21 11:58:28;;;;;;;2.90;2.60;;;;;;;;;;5091996;28;20451;-77
2022/07/21 12:01:09;;;;;;;2.83;2.47;;;;;;;;;;5091109;28;20946;-77
2022/07/21 12:03:47;;;;;;;3.20;2.37;;;;;;;;;;5091419;28;20496;-78
2022/07/21 12:06:15;;;;;;;2.97;2.77;;;;;;;;;;5102689;28;20537;-78
2022/07/21 12:08:43;;;;;;;3.70;3.10;;;;;;;;;;5091455;28;20807;-78
2022/07/21 12:11:12;;;;;;;2.87;2.67;;;;;;;;;;5091988;28;20444;-77
2022/07/21 12:13:54;;;;;;;2.80;2.60;;;;;;;;;;5091239;28;20448;-77
2022/07/21 12:16:23;;;;;;;3.30;3.00;;;;;;;;;;5091438;28;20536;-78
2022/07/21 12:18:51;;;;;;;3.30;3.00;;;;;;;;;;5091204;28;20935;-77
2022/07/21 12:21:18;;;;;;;4.07;3.10;;;;;;;;;;5091797;28;20448;-78
2022/07/21 12:23:45;;;;;;;2.83;2.63;;;;;;;;;;5091771;28;20479;-78
2022/07/21 12:26:22;;;;;;;2.83;2.63;;;;;;;;;;5096843;28;20436;-78
2022/07/21 12:28:52;;;;;;;3.60;3.30;;;;;;;;;;5100981;28;20490;-78
2022/07/21 12:31:21;;;;;;;3.93;3.63;;;;;;;;;;5098511;28;20856;-78
2022/07/21 12:33:49;;;;;;;2.97;2.70;;;;;;;;;;5092381;28;20476;-79
2022/07/21 12:36:17;;;;;;;4.87;3.33;;;;;;;;;;5086958;28;20448;-78
2022/07/21 12:38:45;;;;;;;3.43;3.00;;;;;;;;;;5091257;28;20444;-77
2022/07/21 12:41:13;;;;;;;3.20;3.00;;;;;;;;;;5091571;28;20955;-77
2022/07/21 12:43:40;;;;;;;3.97;3.63;;;;;;;;;;5091406;28;20532;-77
2022/07/21 12:46:11;;;;;;;4.30;3.93;;;;;;;;;;5091522;28;20535;-78
2022/07/21 12:48:38;;;;;;;2.90;2.60;;;;;;;;;;5091785;28;20535;-78
2022/07/21 12:51:12;;;;;;;4.20;3.80;;;;;;;;;;5091760;28;20485;-77
2022/07/21 12:53:40;;;;;;;4.30;3.37;;;;;;;;;;5091030;28;20523;-78
2022/07/21 12:56:08;;;;;;;4.03;3.63;;;;;;;;;;5091620;28;20473;-78
2022/07/21 12:58:35;;;;;;;3.77;3.40;;;;;;;;;;5091335;28;20441;-78
2022/07/21 13:01:03;;;;;;;3.53;3.23;;;;;;;;;;5092135;28;20449;-78
2022/07/21 13:03:30;;;;;;;3.47;3.17;;;;;;;;;;5091461;28;20484;-78
2022/07/21 13:05:58;;;;;;;3.53;3.23;;;;;;;;;;5100720;28;20483;-77
2022/07/21 13:08:26;;;;;;;3.70;3.40;;;;;;;;;;5092363;28;20531;-77
2022/07/21 13:10:53;;;;;;;3.83;3.40;;;;;;;;;;5090599;28;20443;-77
2022/07/21 13:13:21;;;;;;;4.53;4.07;;;;;;;;;;5090631;28;20917;-77
2022/07/21 13:15:48;;;;;;;3.90;3.60;;;;;;;;;;5090220;28;20982;-77
2022/07/21 13:18:15;;;;;;;3.90;3.37;;;;;;;;;;5077947;28;20448;-77
2022/07/21 13:20:43;;;;;;;4.47;4.07;;;;;;;;;;5090105;28;20512;-77
2022/07/21 13:23:10;;;;;;;4.40;4.07;;;;;;;;;;5091227;28;20529;-77
2022/07/21 13:25:38;;;;;;;3.70;3.40;;;;;;;;;;5090385;28;20978;-77
2022/07/21 13:28:06;;;;;;;4.13;3.73;;;;;;;;;;5091233;28;20495;-77
2022/07/21 13:30:33;;;;;;;5.37;4.23;;;;;;;;;;5090432;28;20519;-77
2022/07/21 13:33:00;;;;;;;5.00;3.50;;;;;;;;;;5091031;28;20474;-77
2022/07/21 13:35:27;;;;;;;4.30;3.43;;;;;;;;;;5093534;28;20439;-77
2022/07/21 13:37:55;;;;;;;3.93;3.53;;;;;;;;;;5090625;28;20823;-77
2022/07/21 13:40:22;;;;;;;4.40;4.00;;;;;;;;;;5090486;28;20444;-77
2022/07/21 13:42:51;;;;;;;4.07;3.67;;;;;;;;;;5090398;28;20444;-76
2022/07/21 13:45:18;;;;;;;3.80;3.27;;;;;;;;;;5090439;28;20456;-77
2022/07/21 13:47:45;;;;;;;4.20;3.80;;;;;;;;;;5090507;28;20281;-77
2022/07/21 13:50:12;;;;;;;5.97;3.70;;;;;;;;;;5090786;28;20202;-76
2022/07/21 13:52:40;;;;;;;5.33;4.20;;;;;;;;;;5090409;28;20194;-77
2022/07/21 13:55:08;;;;;;;5.43;4.33;;;;;;;;;;5090921;28;20277;-77
2022/07/21 13:57:35;;;;;;;3.70;3.40;;;;;;;;;;5090388;28;21034;-76
2022/07/21 14:00:04;;;;;;;4.53;4.13;;;;;;;;;;5094468;28;20444;-76
2022/07/21 14:02:31;;;;;;;4.10;3.50;;;;;;;;;;5093954;28;20251;-70
2022/07/21 14:04:58;;;;;;;4.37;3.97;;;;;;;;;;5098930;28;20297;-77
2022/07/21 14:07:26;;;;;;;4.50;3.60;;;;;;;;;;5121325;28;20272;-77
2022/07/21 14:09:53;;;;;;;4.40;4.03;;;;;;;;;;5107888;28;20222;-76
2022/07/21 14:12:20;;;;;;;3.50;3.20;;;;;;;;;;5100089;28;20194;-77
2022/07/21 14:14:47;;;;;;;4.53;4.10;;;;;;;;;;5094510;28;20289;-76
2022/07/21 14:17:16;;;;;;;4.13;3.83;;;;;;;;;;5094222;28;20284;-76
2022/07/21 14:19:44;;;;;;;3.75;3.45;;;;;;;;;;5093494;28;20198;-76
2022/07/21 14:22:11;;;;;;;4.18;3.78;;;;;;;;;;5094444;28;20205;-75
2022/07/21 14:27:23;;;;;;;4.25;3.85;;;;;;;;;;5093554;28;20291;-78
2022/07/21 14:29:51;;;;;;;4.03;3.40;;;;;;;;;;5093694;28;20285;-78
2022/07/21 14:32:21;;;;;;;4.03;3.47;;;;;;;;;;5093842;28;20202;-78
2022/07/21 14:34:49;;;;;;;3.65;3.35;;;;;;;;;;5094107;28;20229;-77
2022/07/21 14:37:16;;;;;;;4.13;3.80;;;;;;;;;;5096675;28;20218;-77
2022/07/21 14:39:43;;;;;;;4.35;3.95;;;;;;;;;;5093041;28;20650;-77
2022/07/21 14:42:10;;;;;;;4.30;3.90;;;;;;;;;;5094447;28;20226;-78
2022/07/21 14:44:39;;;;;;;4.07;3.67;;;;;;;;;;5092844;28;20270;-77